Terminal Aerodrome Forecast
Issued by NWS

Home | Current Version | Previous Version | Graphics & Text | Print | Product List | Glossary On
Versions: 1 2 3 4 5 6 7 8 9 10 11 12 13 14 15 16 17 18
000
FTUS43 KOAX 251700
TAFCDR
TAF
KCDR 251720Z 2518/2618 26012G22KT P6SM SCT060
     FM252200 06010G20KT P6SM BKN060
     FM260000 06009KT P6SM VCTS BKN060CB
     FM260500 15008KT P6SM BKN060
     FM260900 15007KT 2SM BR BKN015
     FM261500 16012G23KT P6SM BKN045=

USA.gov is the U.S. government's official web portal to all federal, state and local government web resources and services.